Time;durP1;ratioP1;P1;durP2;ratioP2;P2;SDS_P1;SDS_P2;PMS_P1;PMS_P2;Temp;Humidity;BMP_temperature;BMP_pressure;BME280_temperature;BME280_humidity;BME280_pressure;Samples;Min_cycle;Max_cycle;Signal;HPM_P1;HPM_P2
2023/05/13 00:01:23;;;;;;;;;;;;;;;10.09;100.00;95796.97;5081980;28;20325;-76
2023/05/13 00:03:49;;;;;;;;;;;;;;;10.03;100.00;95794.75;5077262;28;19924;-76
2023/05/13 00:06:15;;;;;;;;;;;;;;;9.94;100.00;95793.56;5083259;28;19928;-76
2023/05/13 00:08:42;;;;;;;;;;;;;;;9.97;100.00;95795.94;5087360;28;19932;-76
2023/05/13 00:11:08;;;;;;;;;;;;;;;10.00;100.00;95798.34;5083817;28;19965;-77
2023/05/13 00:13:34;;;;;;;;;;;;;;;9.87;100.00;95795.66;5083680;28;19924;-76
2023/05/13 00:16:02;;;;;;;;;;;;;;;9.85;100.00;95802.69;5078325;28;19928;-76
2023/05/13 00:18:29;;;;;;;;;;;;;;;9.76;100.00;95787.72;5073942;28;20466;-76
2023/05/13 00:20:55;;;;;;;;;;;;;;;9.74;100.00;95786.97;5079349;28;19924;-76
2023/05/13 00:23:22;;;;;;;;;;;;;;;9.56;100.00;95788.88;5085514;28;19973;-75
2023/05/13 00:25:48;;;;;;;;;;;;;;;9.54;100.00;95795.06;5075016;28;19925;-77
2023/05/13 00:28:14;;;;;;;;;;;;;;;9.44;100.00;95789.59;5087459;28;19924;-76
2023/05/13 00:30:42;;;;;;;;;;;;;;;9.34;100.00;95804.78;5081137;28;19968;-76
2023/05/13 00:33:10;;;;;;;;;;;;;;;9.22;100.00;95800.31;5074382;28;19927;-76
2023/05/13 00:35:36;;;;;;;;;;;;;;;9.15;100.00;95793.84;5075196;28;20387;-77
2023/05/13 00:38:02;;;;;;;;;;;;;;;9.32;100.00;95792.88;5087519;28;19994;-76
2023/05/13 00:40:29;;;;;;;;;;;;;;;9.38;100.00;95788.22;5075766;28;19924;-76
2023/05/13 00:42:55;;;;;;;;;;;;;;;9.29;100.00;95796.47;5086012;28;19932;-76
2023/05/13 00:45:22;;;;;;;;;;;;;;;9.24;100.00;95797.66;5086077;28;20722;-77
2023/05/13 00:47:49;;;;;;;;;;;;;;;9.35;100.00;95796.13;5079038;28;19970;-77
2023/05/13 00:50:16;;;;;;;;;;;;;;;9.39;100.00;95796.78;5094068;28;19985;-76
2023/05/13 00:52:43;;;;;;;;;;;;;;;9.43;100.00;95795.69;5089265;28;19973;-76
2023/05/13 00:55:09;;;;;;;;;;;;;;;9.51;100.00;95790.06;5091736;28;20290;-77
2023/05/13 00:57:36;;;;;;;;;;;;;;;9.61;100.00;95792.03;5086937;28;20443;-77
2023/05/13 01:00:04;;;;;;;;;;;;;;;9.61;100.00;95786.03;5082859;28;20405;-77
2023/05/13 01:02:34;;;;;;;;;;;;;;;9.63;100.00;95786.75;5085024;28;19975;-77
2023/05/13 01:05:06;;;;;;;;;;;;;;;9.63;100.00;95790.16;5088336;28;19928;-77
2023/05/13 01:07:38;;;;;;;;;;;;;;;9.59;100.00;95793.88;5084407;28;19936;-77
2023/05/13 01:10:08;;;;;;;;;;;;;;;9.48;100.00;95800.59;5093210;28;20384;-77
2023/05/13 01:12:36;;;;;;;;;;;;;;;9.41;100.00;95793.19;5079803;28;20510;-77
2023/05/13 01:15:04;;;;;;;;;;;;;;;9.40;100.00;95796.69;5087722;28;19928;-76
2023/05/13 01:17:32;;;;;;;;;;;;;;;9.42;100.00;95791.44;5077627;28;19979;-76
2023/05/13 01:20:00;;;;;;;;;;;;;;;9.42;100.00;95794.88;5090074;28;19936;-76
2023/05/13 01:22:28;;;;;;;;;;;;;;;9.48;100.00;95796.25;5082350;28;19924;-76
2023/05/13 01:24:54;;;;;;;;;;;;;;;9.49;100.00;95797.91;5086010;28;20394;-76
2023/05/13 01:27:20;;;;;;;;;;;;;;;9.34;100.00;95793.63;5086115;28;19925;-77
2023/05/13 01:29:47;;;;;;;;;;;;;;;9.25;100.00;95800.16;5079915;28;19938;-76
2023/05/13 01:32:14;;;;;;;;;;;;;;;9.31;100.00;95799.00;5083901;28;19924;-77
2023/05/13 01:34:40;;;;;;;;;;;;;;;9.38;100.00;95800.28;5084181;28;19989;-77
2023/05/13 01:37:07;;;;;;;;;;;;;;;9.35;100.00;95801.31;5072329;28;20516;-77
2023/05/13 01:39:36;;;;;;;;;;;;;;;9.42;100.00;95802.63;5084612;28;19928;-77
2023/05/13 01:42:02;;;;;;;;;;;;;;;9.44;100.00;95800.75;5087682;28;19928;-77
2023/05/13 01:44:29;;;;;;;;;;;;;;;9.50;100.00;95798.75;5082693;28;19978;-77
2023/05/13 01:46:55;;;;;;;;;;;;;;;9.56;100.00;95799.22;5082722;28;20016;-77
2023/05/13 01:49:22;;;;;;;;;;;;;;;9.62;100.00;95798.03;5086485;28;19939;-77
2023/05/13 01:51:48;;;;;;;;;;;;;;;9.68;100.00;95808.03;5085647;28;20464;-77
2023/05/13 01:54:14;;;;;;;;;;;;;;;9.74;100.00;95806.81;5080583;28;19943;-77
2023/05/13 01:56:42;;;;;;;;;;;;;;;9.72;100.00;95806.94;5080931;28;19925;-77
2023/05/13 01:59:09;;;;;;;;;;;;;;;9.61;100.00;95804.13;5082228;28;19928;-77
2023/05/13 02:01:35;;;;;;;;;;;;;;;9.59;100.00;95800.78;5088709;28;19924;-77
2023/05/13 02:04:02;;;;;;;;;;;;;;;9.67;100.00;95801.16;5075718;28;20055;-77
2023/05/13 02:06:28;;;;;;;;;;;;;;;9.73;100.00;95802.59;5079010;28;20399;-77
2023/05/13 02:08:55;;;;;;;;;;;;;;;9.75;100.00;95808.47;5085835;28;20306;-77
2023/05/13 02:11:21;;;;;;;;;;;;;;;9.73;100.00;95805.16;5082994;28;19931;-77
2023/05/13 02:13:49;;;;;;;;;;;;;;;9.66;100.00;95805.50;5078690;28;20011;-77
2023/05/13 02:16:16;;;;;;;;;;;;;;;9.65;100.00;95806.44;5084938;28;19976;-77
2023/05/13 02:18:42;;;;;;;;;;;;;;;9.67;100.00;95814.94;5072463;28;20425;-77
2023/05/13 02:21:08;;;;;;;;;;;;;;;9.57;100.00;95811.25;5084995;28;19924;-77
2023/05/13 02:23:35;;;;;;;;;;;;;;;9.58;100.00;95818.06;5084182;28;20032;-77
2023/05/13 02:26:01;;;;;;;;;;;;;;;9.41;100.00;95810.44;5089383;28;19924;-77
2023/05/13 02:28:27;;;;;;;;;;;;;;;9.34;100.00;95811.72;5088447;28;19997;-77
2023/05/13 02:30:55;;;;;;;;;;;;;;;9.21;100.00;95803.84;5090533;28;19928;-77
2023/05/13 02:33:21;;;;;;;;;;;;;;;9.28;100.00;95809.50;5088419;28;20348;-77
2023/05/13 02:35:48;;;;;;;;;;;;;;;9.29;100.00;95811.16;5090562;28;19924;-77
2023/05/13 02:38:14;;;;;;;;;;;;;;;9.38;100.00;95805.44;5083916;28;20297;-77
2023/05/13 02:40:41;;;;;;;;;;;;;;;9.28;100.00;95804.31;5081110;28;19932;-77
2023/05/13 02:43:07;;;;;;;;;;;;;;;9.32;100.00;95808.41;5080160;28;19928;-77
2023/05/13 02:45:33;;;;;;;;;;;;;;;9.20;100.00;95803.00;5087989;28;20386;-77
2023/05/13 02:48:01;;;;;;;;;;;;;;;9.23;100.00;95803.75;5082436;28;20345;-77
2023/05/13 02:50:27;;;;;;;;;;;;;;;9.18;100.00;95798.84;5091399;28;19935;-77
2023/05/13 02:52:53;;;;;;;;;;;;;;;9.16;100.00;95793.78;5080405;28;19979;-77
2023/05/13 02:55:20;;;;;;;;;;;;;;;9.11;100.00;95792.34;5089983;28;20028;-77
2023/05/13 02:57:46;;;;;;;;;;;;;;;9.11;100.00;95794.94;5085465;28;20307;-76
2023/05/13 03:00:13;;;;;;;;;;;;;;;9.19;100.00;95797.91;5084689;28;20368;-77
2023/05/13 03:02:39;;;;;;;;;;;;;;;9.20;100.00;95802.19;5080912;28;19966;-76
2023/05/13 03:05:08;;;;;;;;;;;;;;;9.11;100.00;95800.09;5088710;28;19923;-76
2023/05/13 03:07:34;;;;;;;;;;;;;;;9.15;100.00;95801.59;5070246;28;19925;-76
2023/05/13 03:10:02;;;;;;;;;;;;;;;9.01;100.00;95806.69;5089656;28;21292;-76
2023/05/13 03:12:28;;;;;;;;;;;;;;;8.95;100.00;95797.56;5081966;28;19928;-78
2023/05/13 03:14:55;;;;;;;;;;;;;;;8.95;100.00;95803.56;5089920;28;19925;-77
2023/05/13 03:17:21;;;;;;;;;;;;;;;8.84;100.00;95800.72;5082500;28;19924;-76
2023/05/13 03:19:47;;;;;;;;;;;;;;;8.90;100.00;95804.75;5086817;28;19928;-77
2023/05/13 03:22:15;;;;;;;;;;;;;;;9.03;100.00;95802.28;5087229;28;19954;-76
2023/05/13 03:24:42;;;;;;;;;;;;;;;9.08;100.00;95808.84;5080976;28;20344;-76
2023/05/13 03:27:08;;;;;;;;;;;;;;;9.14;100.00;95797.34;5086426;28;19924;-76
2023/05/13 03:29:34;;;;;;;;;;;;;;;9.29;100.00;95806.81;5083324;28;19924;-76
2023/05/13 03:32:00;;;;;;;;;;;;;;;9.31;100.00;95804.16;5085063;28;19924;-77
2023/05/13 03:34:27;;;;;;;;;;;;;;;9.37;100.00;95804.63;5087851;28;20047;-77
2023/05/13 03:36:53;;;;;;;;;;;;;;;9.36;100.00;95815.06;5085793;28;19989;-77
2023/05/13 03:39:20;;;;;;;;;;;;;;;9.30;100.00;95816.22;5085991;28;19970;-77
2023/05/13 03:41:47;;;;;;;;;;;;;;;9.41;100.00;95816.44;5084112;28;19928;-77
2023/05/13 03:44:13;;;;;;;;;;;;;;;9.23;100.00;95832.16;5081944;28;19928;-77
2023/05/13 03:46:39;;;;;;;;;;;;;;;9.24;100.00;95823.50;5084619;28;19973;-77
2023/05/13 03:49:06;;;;;;;;;;;;;;;9.28;100.00;95825.84;5075088;28;19925;-77
2023/05/13 03:51:33;;;;;;;;;;;;;;;9.08;100.00;95831.28;5076690;28;19928;-77
2023/05/13 03:53:59;;;;;;;;;;;;;;;9.10;100.00;95819.94;5086947;28;19985;-78
2023/05/13 03:56:27;;;;;;;;;;;;;;;9.08;100.00;95821.75;5078711;28;19924;-77
2023/05/13 03:58:53;;;;;;;;;;;;;;;8.98;100.00;95819.81;5087889;28;19977;-77
2023/05/13 04:01:20;;;;;;;;;;;;;;;9.00;100.00;95830.88;5083968;28;20322;-77
2023/05/13 04:03:46;;;;;;;;;;;;;;;9.03;100.00;95828.13;5086720;28;19931;-77
2023/05/13 04:06:13;;;;;;;;;;;;;;;8.95;100.00;95834.53;5078884;28;19981;-77
2023/05/13 04:08:40;;;;;;;;;;;;;;;8.76;100.00;95831.31;5086153;28;19932;-77
2023/05/13 04:11:06;;;;;;;;;;;;;;;8.85;100.00;95835.97;5087807;28;19930;-77
2023/05/13 04:13:34;;;;;;;;;;;;;;;8.90;100.00;95830.56;5086961;28;19932;-77
2023/05/13 04:16:00;;;;;;;;;;;;;;;9.14;100.00;95829.19;5076747;28;20310;-77
2023/05/13 04:18:26;;;;;;;;;;;;;;;8.92;100.00;95833.88;5084057;28;19924;-77
2023/05/13 04:20:52;;;;;;;;;;;;;;;8.98;100.00;95838.72;5086091;28;19933;-77
2023/05/13 04:23:18;;;;;;;;;;;;;;;8.63;100.00;95840.63;5084544;28;20005;-77
2023/05/13 04:25:49;;;;;;;;;;;;;;;8.80;100.00;95844.91;5085325;28;19936;-77
2023/05/13 04:28:16;;;;;;;;;;;;;;;8.84;100.00;95841.22;5084312;28;19924;-77
2023/05/13 04:30:44;;;;;;;;;;;;;;;8.86;100.00;95844.53;5083484;28;19989;-77
2023/05/13 04:33:10;;;;;;;;;;;;;;;8.80;100.00;95848.31;5084429;28;19924;-77
2023/05/13 04:35:37;;;;;;;;;;;;;;;8.95;100.00;95842.28;5085918;28;19932;-77
2023/05/13 04:38:03;;;;;;;;;;;;;;;8.98;100.00;95843.06;5083093;28;19940;-77
2023/05/13 04:40:30;;;;;;;;;;;;;;;8.94;100.00;95845.81;5086718;28;19928;-77
2023/05/13 04:42:56;;;;;;;;;;;;;;;8.87;100.00;95841.06;5080718;28;19925;-77
2023/05/13 04:45:23;;;;;;;;;;;;;;;8.83;100.00;95850.72;5075886;28;19938;-77
2023/05/13 04:47:51;;;;;;;;;;;;;;;8.91;100.00;95852.88;5077455;28;20276;-77
2023/05/13 04:50:17;;;;;;;;;;;;;;;8.88;100.00;95856.47;5079324;28;20009;-76
2023/05/13 04:52:45;;;;;;;;;;;;;;;8.92;100.00;95850.22;5072001;28;20295;-76
2023/05/13 04:55:11;;;;;;;;;;;;;;;9.05;100.00;95847.78;5082326;28;19946;-76
2023/05/13 04:57:37;;;;;;;;;;;;;;;8.97;100.00;95855.13;5084543;28;20292;-77
2023/05/13 05:00:05;;;;;;;;;;;;;;;9.04;100.00;95853.88;5084781;28;19931;-77
2023/05/13 05:02:31;;;;;;;;;;;;;;;9.20;100.00;95854.69;5078246;28;20283;-76
2023/05/13 05:04:58;;;;;;;;;;;;;;;9.18;100.00;95856.50;5086758;28;19932;-76
2023/05/13 05:07:25;;;;;;;;;;;;;;;9.05;100.00;95850.38;5080961;28;19978;-76
2023/05/13 05:09:51;;;;;;;;;;;;;;;8.93;100.00;95862.19;5089512;28;20012;-76
2023/05/13 05:12:18;;;;;;;;;;;;;;;8.86;100.00;95860.03;5082924;28;20457;-76
2023/05/13 05:14:44;;;;;;;;;;;;;;;9.01;100.00;95866.13;5084605;28;19973;-76
2023/05/13 05:17:10;;;;;;;;;;;;;;;8.98;100.00;95874.88;5083528;28;20022;-76
2023/05/13 05:19:37;;;;;;;;;;;;;;;8.86;100.00;95872.94;5085521;28;19928;-76
2023/05/13 05:22:04;;;;;;;;;;;;;;;9.03;100.00;95872.88;5078219;28;19932;-76
2023/05/13 05:24:31;;;;;;;;;;;;;;;9.10;100.00;95881.94;5079539;28;19924;-76
2023/05/13 05:26:57;;;;;;;;;;;;;;;9.00;100.00;95883.38;5082342;28;20340;-76
2023/05/13 05:29:23;;;;;;;;;;;;;;;9.05;100.00;95886.56;5083799;28;19927;-77
2023/05/13 05:31:49;;;;;;;;;;;;;;;9.15;100.00;95889.44;5086970;28;20313;-76
2023/05/13 05:34:16;;;;;;;;;;;;;;;9.35;100.00;95888.34;5080599;28;19925;-76
2023/05/13 05:36:42;;;;;;;;;;;;;;;9.41;100.00;95888.00;5086463;28;19935;-77
2023/05/13 05:39:10;;;;;;;;;;;;;;;9.30;100.00;95886.00;5075143;28;19978;-76
2023/05/13 05:41:37;;;;;;;;;;;;;;;9.25;100.00;95885.44;5086433;28;20019;-77
2023/05/13 05:44:03;;;;;;;;;;;;;;;9.27;100.00;95891.38;5087046;28;19932;-77
2023/05/13 05:46:30;;;;;;;;;;;;;;;9.27;100.00;95891.38;5087572;28;19924;-76
2023/05/13 05:48:56;;;;;;;;;;;;;;;9.39;100.00;95889.84;5079446;28;19925;-76
2023/05/13 05:51:22;;;;;;;;;;;;;;;9.45;100.00;95887.75;5088488;28;19928;-76
2023/05/13 05:53:48;;;;;;;;;;;;;;;9.49;100.00;95887.56;5090040;28;19924;-76
2023/05/13 05:56:16;;;;;;;;;;;;;;;9.45;100.00;95884.31;5082502;28;20267;-76
2023/05/13 05:58:42;;;;;;;;;;;;;;;9.46;100.00;95875.66;5085262;28;19931;-76
2023/05/13 06:01:09;;;;;;;;;;;;;;;9.56;100.00;95891.47;5087146;28;19927;-76
2023/05/13 06:03:35;;;;;;;;;;;;;;;9.41;100.00;95888.81;5081761;28;20018;-76
2023/05/13 06:06:01;;;;;;;;;;;;;;;9.55;100.00;95889.81;5088449;28;19925;-76
2023/05/13 06:08:29;;;;;;;;;;;;;;;9.59;100.00;95886.13;5087550;28;19942;-77
2023/05/13 06:10:55;;;;;;;;;;;;;;;9.67;100.00;95884.75;5079124;28;19925;-76
2023/05/13 06:13:23;;;;;;;;;;;;;;;9.63;100.00;95892.78;5088944;28;19934;-76
2023/05/13 06:15:49;;;;;;;;;;;;;;;9.59;100.00;95891.28;5085612;28;19933;-76
2023/05/13 06:18:15;;;;;;;;;;;;;;;9.42;100.00;95900.03;5093021;28;19924;-77
2023/05/13 06:20:41;;;;;;;;;;;;;;;9.70;100.00;95892.34;5090163;28;20041;-77
2023/05/13 06:23:08;;;;;;;;;;;;;;;9.48;100.00;95893.66;5085421;28;19953;-76
2023/05/13 06:25:34;;;;;;;;;;;;;;;9.38;100.00;95899.34;5080535;28;19978;-77
2023/05/13 06:28:01;;;;;;;;;;;;;;;9.70;100.00;95894.94;5076431;28;19947;-77
2023/05/13 06:30:28;;;;;;;;;;;;;;;9.52;100.00;95895.97;5082794;28;19928;-76
2023/05/13 06:32:56;;;;;;;;;;;;;;;9.62;100.00;95899.72;5087130;28;19929;-77
2023/05/13 06:35:22;;;;;;;;;;;;;;;9.64;100.00;95895.31;5087772;28;19927;-76
2023/05/13 06:37:48;;;;;;;;;;;;;;;9.69;100.00;95903.63;5086285;28;20303;-76
2023/05/13 06:40:14;;;;;;;;;;;;;;;9.58;100.00;95899.97;5087847;28;19924;-77
2023/05/13 06:42:41;;;;;;;;;;;;;;;9.64;100.00;95905.63;5085533;28;19928;-77
2023/05/13 06:45:08;;;;;;;;;;;;;;;9.91;100.00;95910.97;5087892;28;19928;-76
2023/05/13 06:47:35;;;;;;;;;;;;;;;9.78;100.00;95910.00;5079279;28;19931;-77
2023/05/13 06:50:02;;;;;;;;;;;;;;;9.64;100.00;95909.94;5088704;28;19943;-77
2023/05/13 06:52:29;;;;;;;;;;;;;;;9.65;100.00;95906.47;5087346;28;19931;-77
2023/05/13 06:54:55;;;;;;;;;;;;;;;9.57;100.00;95914.66;5091648;28;20399;-77
2023/05/13 06:57:22;;;;;;;;;;;;;;;9.58;100.00;95918.06;5082258;28;20341;-76
2023/05/13 06:59:48;;;;;;;;;;;;;;;9.51;100.00;95914.16;5084604;28;19924;-77
2023/05/13 07:02:14;;;;;;;;;;;;;;;9.71;100.00;95911.28;5085262;28;19925;-77
2023/05/13 07:04:42;;;;;;;;;;;;;;;9.57;100.00;95917.25;5091249;28;19970;-77
2023/05/13 07:07:08;;;;;;;;;;;;;;;9.80;100.00;95926.28;5084948;28;19928;-77
2023/05/13 07:09:34;;;;;;;;;;;;;;;10.09;100.00;95921.19;5089215;28;20387;-77
2023/05/13 07:12:01;;;;;;;;;;;;;;;10.18;100.00;95918.03;5086463;28;20002;-77
2023/05/13 07:14:27;;;;;;;;;;;;;;;10.11;100.00;95919.31;5087590;28;19932;-77
2023/05/13 07:16:53;;;;;;;;;;;;;;;9.94;100.00;95920.31;5081790;28;20065;-76
2023/05/13 07:19:19;;;;;;;;;;;;;;;10.02;100.00;95914.69;5084231;28;19924;-77
2023/05/13 07:21:47;;;;;;;;;;;;;;;10.12;100.00;95919.25;5080987;28;19924;-77
2023/05/13 07:24:13;;;;;;;;;;;;;;;9.97;100.00;95920.13;5073115;28;19986;-76
2023/05/13 07:26:39;;;;;;;;;;;;;;;10.18;100.00;95928.41;5079400;28;19932;-77
2023/05/13 07:29:06;;;;;;;;;;;;;;;10.29;100.00;95926.03;5084456;28;19924;-77
2023/05/13 07:31:33;;;;;;;;;;;;;;;10.46;100.00;95930.22;5074268;28;19932;-77
2023/05/13 07:33:59;;;;;;;;;;;;;;;10.38;100.00;95922.06;5082698;28;19924;-77
2023/05/13 07:36:26;;;;;;;;;;;;;;;10.16;100.00;95918.16;5085607;28;19954;-76
2023/05/13 07:38:54;;;;;;;;;;;;;;;10.08;100.00;95922.09;5070979;28;20023;-77
2023/05/13 07:41:20;;;;;;;;;;;;;;;10.24;100.00;95922.88;5071649;28;19978;-77
2023/05/13 07:43:47;;;;;;;;;;;;;;;10.34;100.00;95921.41;5076106;28;19971;-76
2023/05/13 07:46:13;;;;;;;;;;;;;;;10.25;100.00;95916.78;5070606;28;19978;-77
2023/05/13 07:48:39;;;;;;;;;;;;;;;10.35;100.00;95912.75;5081230;28;19924;-77
2023/05/13 07:51:06;;;;;;;;;;;;;;;10.39;100.00;95918.56;5078560;28;19931;-77
2023/05/13 07:53:32;;;;;;;;;;;;;;;10.73;100.00;95921.72;5075983;28;19932;-77
2023/05/13 07:56:00;;;;;;;;;;;;;;;10.84;100.00;95921.91;5086633;28;19977;-77
2023/05/13 07:58:26;;;;;;;;;;;;;;;10.71;100.00;95931.34;5072626;28;20726;-77
2023/05/13 08:00:52;;;;;;;;;;;;;;;10.84;100.00;95927.91;5085741;28;20298;-77
2023/05/13 08:03:18;;;;;;;;;;;;;;;10.82;100.00;95927.16;5084367;28;19939;-77
2023/05/13 08:05:46;;;;;;;;;;;;;;;10.70;100.00;95930.50;5083476;28;19982;-77
2023/05/13 08:08:13;;;;;;;;;;;;;;;10.82;100.00;95932.34;5083263;28;19924;-77
2023/05/13 08:10:39;;;;;;;;;;;;;;;10.99;100.00;95928.72;5083494;28;19931;-77
2023/05/13 08:13:06;;;;;;;;;;;;;;;10.96;100.00;95934.09;5083139;28;19978;-77
2023/05/13 08:15:33;;;;;;;;;;;;;;;10.88;100.00;95926.78;5081041;28;20468;-76
2023/05/13 08:17:59;;;;;;;;;;;;;;;10.70;100.00;95927.91;5076758;28;19924;-77
2023/05/13 08:20:28;;;;;;;;;;;;;;;11.09;100.00;95929.00;5086932;28;19924;-78
2023/05/13 08:22:54;;;;;;;;;;;;;;;11.10;100.00;95930.66;5090937;28;19928;-78
2023/05/13 08:25:21;;;;;;;;;;;;;;;11.07;100.00;95928.25;5085782;28;20014;-77
2023/05/13 08:27:47;;;;;;;;;;;;;;;11.10;100.00;95931.47;5080693;28;19928;-77
2023/05/13 08:30:15;;;;;;;;;;;;;;;11.30;100.00;95934.56;5078143;28;19924;-77
2023/05/13 08:32:41;;;;;;;;;;;;;;;11.07;100.00;95934.25;5083980;28;19936;-78
2023/05/13 08:35:08;;;;;;;;;;;;;;;11.17;100.00;95936.28;5083926;28;20443;-72
2023/05/13 08:37:34;;;;;;;;;;;;;;;11.18;100.00;95937.94;5087904;28;19932;-78
2023/05/13 08:40:02;;;;;;;;;;;;;;;11.21;100.00;95929.97;5076670;28;19932;-77
2023/05/13 08:42:28;;;;;;;;;;;;;;;11.41;100.00;95933.91;5081625;28;19924;-77
2023/05/13 08:44:55;;;;;;;;;;;;;;;11.42;100.00;95940.75;5085057;28;19932;-77
2023/05/13 08:47:26;;;;;;;;;;;;;;;11.53;100.00;95939.16;5079729;28;19928;-77
2023/05/13 08:49:53;;;;;;;;;;;;;;;11.51;100.00;95935.81;5086903;28;19928;-77
2023/05/13 08:52:21;;;;;;;;;;;;;;;11.05;100.00;95940.44;5080090;28;19924;-75
2023/05/13 08:54:47;;;;;;;;;;;;;;;11.27;100.00;95938.22;5091001;28;19928;-77
2023/05/13 08:57:13;;;;;;;;;;;;;;;11.40;100.00;95940.84;5085098;28;20405;-79
2023/05/13 08:59:40;;;;;;;;;;;;;;;11.30;100.00;95938.00;5060440;28;19983;-77
2023/05/13 09:02:06;;;;;;;;;;;;;;;11.18;100.00;95938.78;5070511;28;20366;-79
2023/05/13 09:04:36;;;;;;;;;;;;;;;11.35;100.00;95942.91;5082198;28;19924;-77
2023/05/13 09:07:03;;;;;;;;;;;;;;;11.56;100.00;95940.69;5087516;28;19982;-78
2023/05/13 09:09:29;;;;;;;;;;;;;;;11.55;100.00;95942.47;5091519;28;19969;-76
2023/05/13 09:11:55;;;;;;;;;;;;;;;11.39;100.00;95950.41;5080139;28;19978;-77
2023/05/13 09:14:21;;;;;;;;;;;;;;;11.41;100.00;95950.28;5091120;28;19924;-77
2023/05/13 09:16:48;;;;;;;;;;;;;;;11.47;100.00;95944.72;5083318;28;20011;-77
2023/05/13 09:19:14;;;;;;;;;;;;;;;11.61;100.00;95943.84;5089952;28;19924;-77
2023/05/13 09:21:43;;;;;;;;;;;;;;;11.62;100.00;95950.69;5082577;28;19928;-77
2023/05/13 09:24:10;;;;;;;;;;;;;;;11.67;100.00;95946.03;5077114;28;19924;-77
2023/05/13 09:26:37;;;;;;;;;;;;;;;11.95;100.00;95945.13;5091327;28;20050;-78
2023/05/13 09:29:17;;;;;;;;;;;;;;;11.95;100.00;95946.91;5087910;28;19932;-76
2023/05/13 09:31:43;;;;;;;;;;;;;;;11.82;100.00;95949.41;5086330;28;19924;-77
2023/05/13 09:34:09;;;;;;;;;;;;;;;11.91;100.00;95945.44;5094564;28;19946;-77
2023/05/13 09:36:37;;;;;;;;;;;;;;;11.67;100.00;95942.63;5091172;28;20399;-77
2023/05/13 09:39:05;;;;;;;;;;;;;;;11.85;100.00;95946.66;5088709;28;19954;-78
2023/05/13 09:41:31;;;;;;;;;;;;;;;11.76;100.00;95953.25;5089999;28;19924;-77
2023/05/13 09:43:57;;;;;;;;;;;;;;;11.69;100.00;95953.75;5083707;28;19928;-77
2023/05/13 09:46:24;;;;;;;;;;;;;;;11.76;100.00;95949.81;5079433;28;20298;-76
2023/05/13 09:48:55;;;;;;;;;;;;;;;11.69;100.00;95949.38;5084663;28;19932;-77
2023/05/13 09:51:25;;;;;;;;;;;;;;;11.73;100.00;95960.38;5093302;28;19935;-77
2023/05/13 09:53:51;;;;;;;;;;;;;;;11.75;100.00;95961.09;5090428;28;20023;-77
2023/05/13 09:56:22;;;;;;;;;;;;;;;11.80;100.00;95957.31;5091825;28;19932;-76
2023/05/13 09:58:50;;;;;;;;;;;;;;;11.69;100.00;95971.91;5087486;28;19924;-77
2023/05/13 10:01:17;;;;;;;;;;;;;;;11.78;100.00;95968.69;5089904;28;19928;-77
2023/05/13 10:03:43;;;;;;;;;;;;;;;11.76;100.00;95968.81;5091507;28;19978;-77
2023/05/13 10:06:10;;;;;;;;;;;;;;;11.61;100.00;95970.63;5061294;28;19924;-76
2023/05/13 10:08:38;;;;;;;;;;;;;;;11.85;100.00;95973.44;5070415;28;19925;-77
2023/05/13 10:11:06;;;;;;;;;;;;;;;11.81;100.00;95982.31;5077760;28;19936;-77
2023/05/13 10:13:33;;;;;;;;;;;;;;;11.94;100.00;95976.34;5082421;28;19932;-77
2023/05/13 10:16:00;;;;;;;;;;;;;;;11.84;100.00;95969.19;5081738;28;20379;-77
2023/05/13 10:18:27;;;;;;;;;;;;;;;11.87;100.00;95968.16;5077337;28;19931;-77
2023/05/13 10:20:54;;;;;;;;;;;;;;;12.02;100.00;95968.91;5082720;28;19931;-77
2023/05/13 10:23:21;;;;;;;;;;;;;;;12.00;100.00;95970.78;5077636;28;19925;-77
2023/05/13 10:25:48;;;;;;;;;;;;;;;12.04;100.00;95967.88;5081223;28;19959;-77
2023/05/13 10:28:14;;;;;;;;;;;;;;;12.11;100.00;95963.94;5083850;28;19924;-76
2023/05/13 10:30:42;;;;;;;;;;;;;;;12.06;100.00;95972.97;5087390;28;19978;-77
2023/05/13 10:33:08;;;;;;;;;;;;;;;12.19;100.00;95967.78;5081082;28;19946;-77
2023/05/13 10:35:36;;;;;;;;;;;;;;;12.02;100.00;95966.31;5080895;28;19928;-77
2023/05/13 10:38:06;;;;;;;;;;;;;;;12.11;100.00;95963.94;5082339;28;20329;-77
2023/05/13 10:40:53;;;;;;;;;;;;;;;12.15;100.00;95971.53;5092684;28;19928;-78
2023/05/13 10:43:20;;;;;;;;;;;;;;;12.25;100.00;95970.00;5076070;28;19924;-77
2023/05/13 10:45:50;;;;;;;;;;;;;;;12.42;100.00;95969.72;5085323;28;19972;-77
2023/05/13 10:48:17;;;;;;;;;;;;;;;12.35;100.00;95971.06;5080175;28;19928;-76
2023/05/13 10:50:51;;;;;;;;;;;;;;;12.33;100.00;95971.16;5083211;28;20960;-75
2023/05/13 10:53:19;;;;;;;;;;;;;;;12.29;100.00;95968.88;5089895;28;20015;-77
2023/05/13 10:55:45;;;;;;;;;;;;;;;12.29;100.00;95974.88;5089370;28;19981;-77
2023/05/13 10:58:12;;;;;;;;;;;;;;;12.07;100.00;95975.47;5086170;28;20029;-77
2023/05/13 11:00:39;;;;;;;;;;;;;;;12.06;100.00;95979.00;5083300;28;19928;-77
2023/05/13 11:03:10;;;;;;;;;;;;;;;12.21;100.00;95971.97;5088918;28;19973;-77
2023/05/13 11:05:38;;;;;;;;;;;;;;;12.34;100.00;95967.59;5087689;28;20427;-76
2023/05/13 11:08:04;;;;;;;;;;;;;;;12.30;100.00;95971.34;5087196;28;19936;-76
2023/05/13 11:10:30;;;;;;;;;;;;;;;12.47;100.00;95964.22;5084501;28;19961;-77
2023/05/13 11:13:07;;;;;;;;;;;;;;;12.39;100.00;95964.72;5085141;28;20332;-76
2023/05/13 11:15:43;;;;;;;;;;;;;;;12.09;100.00;95971.00;5084905;28;19928;-77
2023/05/13 11:18:10;;;;;;;;;;;;;;;12.36;100.00;95972.72;5077821;28;20348;-77
2023/05/13 11:20:37;;;;;;;;;;;;;;;12.24;100.00;95971.78;5086334;28;19932;-76
2023/05/13 11:23:03;;;;;;;;;;;;;;;12.45;100.00;95971.25;5077155;28;19993;-76
2023/05/13 11:25:30;;;;;;;;;;;;;;;12.31;100.00;95961.78;5083657;28;19931;-76
2023/05/13 11:27:56;;;;;;;;;;;;;;;12.38;100.00;95972.59;5082502;28;19928;-76
2023/05/13 11:30:23;;;;;;;;;;;;;;;12.42;100.00;95969.72;5089077;28;19928;-76
2023/05/13 11:32:54;;;;;;;;;;;;;;;12.28;100.00;95975.81;5079639;28;20375;-76
2023/05/13 11:35:22;;;;;;;;;;;;;;;12.26;100.00;95974.25;5075484;28;20279;-76
2023/05/13 11:37:49;;;;;;;;;;;;;;;12.38;100.00;95972.59;5085689;28;19969;-75
2023/05/13 11:40:21;;;;;;;;;;;;;;;12.34;100.00;95971.97;5076680;28;19928;-76
2023/05/13 11:42:47;;;;;;;;;;;;;;;12.29;100.00;95969.69;5078047;28;19932;-74
2023/05/13 11:45:14;;;;;;;;;;;;;;;12.29;100.00;95974.06;5085260;28;20382;-75
2023/05/13 11:47:40;;;;;;;;;;;;;;;12.44;100.00;95962.63;5080623;28;20453;-75
2023/05/13 11:50:17;;;;;;;;;;;;;;;12.44;100.00;95974.81;5082797;28;19933;-75
2023/05/13 11:52:44;;;;;;;;;;;;;;;12.47;100.00;95969.41;5082838;28;20353;-76
2023/05/13 11:55:11;;;;;;;;;;;;;;;12.62;100.00;95968.38;5069525;28;20336;-77
2023/05/13 11:57:37;;;;;;;;;;;;;;;12.57;100.00;95975.66;5086414;28;20336;-75
2023/05/13 12:00:05;;;;;;;;;;;;;;;12.57;100.00;95978.25;5090148;28;20001;-74
2023/05/13 12:02:33;;;;;;;;;;;;;;;12.59;100.00;95972.00;5081445;28;20589;-74
2023/05/13 12:05:00;;;;;;;;;;;;;;;12.73;100.00;95978.03;5090822;28;19928;-77
2023/05/13 12:07:27;;;;;;;;;;;;;;;12.77;100.00;95982.91;5086391;28;19976;-74
2023/05/13 12:09:56;;;;;;;;;;;;;;;12.65;100.00;95980.34;5076269;28;19924;-75
2023/05/13 12:12:22;;;;;;;;;;;;;;;12.72;100.00;95972.00;5091289;28;20440;-74
2023/05/13 12:14:49;;;;;;;;;;;;;;;12.90;100.00;95984.66;5081490;28;19925;-74
2023/05/13 12:17:16;;;;;;;;;;;;;;;12.73;100.00;95988.44;5083725;28;20031;-75
2023/05/13 12:19:57;;;;;;;;;;;;;;;12.99;100.00;95979.69;5079534;28;20298;-75
2023/05/13 12:22:24;;;;;;;;;;;;;;;12.92;100.00;95977.59;5073720;28;19924;-75
2023/05/13 12:24:50;;;;;;;;;;;;;;;12.88;100.00;95979.59;5082298;28;19928;-74
2023/05/13 12:27:18;;;;;;;;;;;;;;;12.84;100.00;95983.34;5078825;28;19928;-76
2023/05/13 12:29:44;;;;;;;;;;;;;;;12.89;100.00;95975.22;5067530;28;19928;-75
2023/05/13 12:32:11;;;;;;;;;;;;;;;12.98;100.00;95985.81;5091258;28;19924;-75
2023/05/13 12:34:38;;;;;;;;;;;;;;;12.87;100.00;95982.28;5076290;28;20345;-75
2023/05/13 12:37:11;;;;;;;;;;;;;;;12.68;100.00;95978.34;5087485;28;20018;-75
2023/05/13 12:39:37;;;;;;;;;;;;;;;12.67;100.00;95976.66;5091906;28;20019;-72
2023/05/13 12:42:04;;;;;;;;;;;;;;;12.75;100.00;95982.19;5090262;28;19935;-74